EZY25X EGHI-EDDH
Flight info
| Callsign | EZY25X |
|---|---|
| Flight time | N/A |
| Altitude | 35000 |
| Route | GWC DCT OCK UM185 KOBBI M197 BRAIN Q295 SOMVA DCT MAVAS DCT GASTU DCT OSTOR/N0415F230 T904 RIBSO RIBSO7A |
| Aircraft | A320/M-SDE3FGHIRWY/LB1 |
Departure
| Time | 2026-04-30 07:40 |
|---|---|
| Airport | Southampton Airport (EGHI) |
Arrival
| Time | N/A |
|---|---|
| Airport | Hamburg Helmut Schmidt Airport (EDDH) |
| Time | Latitude | Longitude | Altitude | Speed | Heading |
|---|---|---|---|---|---|
| 2026-04-30 07:20 | 50.94972 | -1.36117 | 38 ft | 0 kts | 19° |
| 2026-04-30 07:29 | 50.94952 | -1.36128 | 13 ft | 4 kts | 19° |
| 2026-04-30 07:30 | 50.94921 | -1.36164 | 36 ft | 4 kts | 102° |
| 2026-04-30 07:30 | 50.94928 | -1.36200 | 36 ft | 2 kts | 109° |
| 2026-04-30 07:30 | 50.94928 | -1.36203 | 36 ft | 0 kts | 109° |
| 2026-04-30 07:34 | 50.94925 | -1.36189 | 36 ft | 6 kts | 109° |
| 2026-04-30 07:34 | 50.94901 | -1.36079 | 39 ft | 12 kts | 109° |
| 2026-04-30 07:34 | 50.94834 | -1.36041 | 39 ft | 10 kts | 200° |
| 2026-04-30 07:34 | 50.94778 | -1.36074 | 37 ft | 8 kts | 200° |
| 2026-04-30 07:35 | 50.94750 | -1.36090 | 39 ft | 1 kts | 200° |
| 2026-04-30 07:35 | 50.94742 | -1.36095 | 39 ft | 2 kts | 199° |
| 2026-04-30 07:35 | 50.94690 | -1.36124 | 38 ft | 9 kts | 199° |
| 2026-04-30 07:35 | 50.94636 | -1.36136 | 39 ft | 7 kts | 167° |
| 2026-04-30 07:36 | 50.94601 | -1.36111 | 39 ft | 0 kts | 145° |
| 2026-04-30 07:37 | 50.94600 | -1.36109 | 39 ft | 2 kts | 139° |
| 2026-04-30 07:38 | 50.94577 | -1.36036 | 39 ft | 9 kts | 110° |
| 2026-04-30 07:38 | 50.94532 | -1.35961 | 38 ft | 11 kts | 175° |
| 2026-04-30 07:38 | 50.94460 | -1.35994 | 36 ft | 10 kts | 199° |
| 2026-04-30 07:38 | 50.94381 | -1.36037 | 37 ft | 12 kts | 196° |
| 2026-04-30 07:39 | 50.94312 | -1.36035 | 38 ft | 8 kts | 177° |
| 2026-04-30 07:39 | 50.94313 | -1.36064 | 35 ft | 2 kts | 326° |
| 2026-04-30 07:39 | 50.94345 | -1.36059 | 34 ft | 5 kts | 18° |
| 2026-04-30 07:39 | 50.94415 | -1.36022 | 36 ft | 27 kts | 19° |
| 2026-04-30 07:40 | 50.94857 | -1.35773 | 39 ft | 104 kts | 19° |
| 2026-04-30 07:40 | 50.95731 | -1.35278 | 85 ft | 157 kts | 21° |
| 2026-04-30 07:40 | 50.96767 | -1.34723 | 750 ft | 156 kts | 25° |
| 2026-04-30 07:40 | 50.97781 | -1.34155 | 1553 ft | 152 kts | 29° |
| 2026-04-30 07:41 | 50.98735 | -1.33383 | 1820 ft | 161 kts | 54° |
| 2026-04-30 07:41 | 50.99184 | -1.31793 | 2093 ft | 163 kts | 93° |
| 2026-04-30 07:41 | 50.98937 | -1.29978 | 2383 ft | 178 kts | 117° |
| 2026-04-30 07:41 | 50.98258 | -1.28241 | 2853 ft | 195 kts | 117° |
| 2026-04-30 07:42 | 50.97694 | -1.26149 | 3256 ft | 219 kts | 110° |
| 2026-04-30 07:42 | 50.97174 | -1.23796 | 3922 ft | 231 kts | 109° |
| 2026-04-30 07:42 | 50.96654 | -1.21392 | 4741 ft | 236 kts | 110° |
| 2026-04-30 07:42 | 50.96095 | -1.18881 | 5591 ft | 241 kts | 111° |
| 2026-04-30 07:43 | 50.95521 | -1.16386 | 6380 ft | 247 kts | 112° |
| 2026-04-30 07:43 | 50.94914 | -1.13805 | 7160 ft | 252 kts | 112° |
| 2026-04-30 07:43 | 50.94287 | -1.11185 | 7968 ft | 256 kts | 112° |
| 2026-04-30 07:43 | 50.93646 | -1.08534 | 8776 ft | 259 kts | 113° |
| 2026-04-30 07:44 | 50.92991 | -1.05851 | 9584 ft | 263 kts | 113° |
| 2026-04-30 07:44 | 50.92320 | -1.03125 | 10365 ft | 267 kts | 113° |
| 2026-04-30 07:44 | 50.91622 | -1.00299 | 10730 ft | 287 kts | 113° |
| 2026-04-30 07:44 | 50.90863 | -0.97233 | 10936 ft | 310 kts | 113° |
| 2026-04-30 07:45 | 50.90045 | -0.93942 | 11142 ft | 330 kts | 113° |
| 2026-04-30 07:45 | 50.89191 | -0.90504 | 11663 ft | 339 kts | 112° |
| 2026-04-30 07:45 | 50.88323 | -0.86998 | 12317 ft | 344 kts | 112° |
| 2026-04-30 07:45 | 50.87529 | -0.83403 | 12959 ft | 350 kts | 103° |
| 2026-04-30 07:46 | 50.87464 | -0.79520 | 13599 ft | 359 kts | 82° |
| 2026-04-30 07:46 | 50.88342 | -0.75779 | 14194 ft | 371 kts | 60° |
| 2026-04-30 07:46 | 50.90134 | -0.72769 | 14764 ft | 384 kts | 37° |
| 2026-04-30 07:46 | 50.92542 | -0.70824 | 15358 ft | 391 kts | 27° |
| 2026-04-30 07:47 | 50.95049 | -0.69095 | 15952 ft | 394 kts | 26° |
| 2026-04-30 07:47 | 50.97584 | -0.67377 | 16535 ft | 398 kts | 26° |
| 2026-04-30 07:47 | 51.00139 | -0.65655 | 17112 ft | 401 kts | 27° |
| 2026-04-30 07:47 | 51.02724 | -0.63907 | 17679 ft | 405 kts | 27° |
| 2026-04-30 07:48 | 51.05292 | -0.62157 | 18248 ft | 408 kts | 27° |
| 2026-04-30 07:48 | 51.07908 | -0.60362 | 18789 ft | 412 kts | 27° |
| 2026-04-30 07:48 | 51.10547 | -0.58545 | 19300 ft | 414 kts | 28° |
| 2026-04-30 07:48 | 51.13203 | -0.56713 | 19821 ft | 417 kts | 28° |
| 2026-04-30 07:49 | 51.15874 | -0.54868 | 20337 ft | 419 kts | 28° |
| 2026-04-30 07:49 | 51.18560 | -0.53011 | 20828 ft | 422 kts | 28° |
| 2026-04-30 07:49 | 51.21258 | -0.51140 | 21313 ft | 424 kts | 28° |
| 2026-04-30 07:49 | 51.23970 | -0.49253 | 21789 ft | 427 kts | 28° |
| 2026-04-30 07:50 | 51.26702 | -0.47350 | 22235 ft | 429 kts | 28° |
| 2026-04-30 07:50 | 51.29449 | -0.45438 | 22690 ft | 432 kts | 28° |
| 2026-04-30 07:50 | 51.32202 | -0.43501 | 23129 ft | 434 kts | 29° |
| 2026-04-30 07:50 | 51.34947 | -0.41480 | 23582 ft | 435 kts | 30° |
| 2026-04-30 07:51 | 51.37689 | -0.39391 | 23962 ft | 437 kts | 30° |
| 2026-04-30 07:51 | 51.40431 | -0.37265 | 24297 ft | 439 kts | 30° |
| 2026-04-30 07:51 | 51.43188 | -0.35119 | 24633 ft | 441 kts | 30° |
| 2026-04-30 07:51 | 51.45965 | -0.32968 | 24966 ft | 444 kts | 30° |
| 2026-04-30 07:52 | 51.48749 | -0.30824 | 25288 ft | 446 kts | 30° |
| 2026-04-30 07:52 | 51.51522 | -0.28700 | 25603 ft | 448 kts | 30° |
| 2026-04-30 07:52 | 51.54342 | -0.26545 | 25917 ft | 450 kts | 30° |
| 2026-04-30 07:52 | 51.57172 | -0.24382 | 26232 ft | 452 kts | 30° |
| 2026-04-30 07:53 | 51.60018 | -0.22205 | 26610 ft | 454 kts | 30° |
| 2026-04-30 07:53 | 51.62827 | -0.19862 | 26901 ft | 452 kts | 37° |
| 2026-04-30 07:53 | 51.65324 | -0.16844 | 27181 ft | 448 kts | 47° |
| 2026-04-30 07:53 | 51.67443 | -0.13198 | 27456 ft | 443 kts | 57° |
| 2026-04-30 07:54 | 51.69129 | -0.09078 | 27722 ft | 439 kts | 66° |
| 2026-04-30 07:54 | 51.70361 | -0.04598 | 27970 ft | 436 kts | 75° |
| 2026-04-30 07:54 | 51.71169 | 0.00092 | 28124 ft | 435 kts | 79° |
| 2026-04-30 07:54 | 51.71912 | 0.04840 | 28390 ft | 436 kts | 79° |
| 2026-04-30 07:55 | 51.72652 | 0.09597 | 28630 ft | 438 kts | 80° |
| 2026-04-30 07:55 | 51.73391 | 0.14373 | 28873 ft | 439 kts | 80° |
| 2026-04-30 07:55 | 51.74126 | 0.19149 | 29186 ft | 439 kts | 80° |
| 2026-04-30 07:55 | 51.74861 | 0.23922 | 29535 ft | 438 kts | 80° |
| 2026-04-30 07:56 | 51.75592 | 0.28680 | 29871 ft | 437 kts | 80° |
| 2026-04-30 07:56 | 51.76210 | 0.32713 | 30157 ft | 436 kts | 80° |
| 2026-04-30 07:56 | 51.76935 | 0.37461 | 30468 ft | 435 kts | 80° |
| 2026-04-30 07:56 | 51.77656 | 0.42203 | 30759 ft | 434 kts | 80° |
| 2026-04-30 07:57 | 51.78374 | 0.46937 | 31045 ft | 433 kts | 80° |
| 2026-04-30 07:57 | 51.79087 | 0.51660 | 31315 ft | 433 kts | 80° |
| 2026-04-30 07:57 | 51.79786 | 0.56316 | 31594 ft | 432 kts | 80° |
| 2026-04-30 07:57 | 51.80495 | 0.61028 | 31884 ft | 431 kts | 80° |
| 2026-04-30 07:58 | 51.81289 | 0.65705 | 32158 ft | 433 kts | 74° |
| 2026-04-30 07:58 | 51.82419 | 0.70237 | 32414 ft | 435 kts | 71° |
| 2026-04-30 07:58 | 51.83588 | 0.74737 | 32678 ft | 435 kts | 71° |
| 2026-04-30 07:58 | 51.84758 | 0.79236 | 32977 ft | 434 kts | 71° |
| 2026-04-30 07:59 | 51.85926 | 0.83736 | 33267 ft | 433 kts | 71° |
| 2026-04-30 07:59 | 51.87092 | 0.88234 | 33555 ft | 432 kts | 71° |
| 2026-04-30 07:59 | 51.88250 | 0.92722 | 33840 ft | 431 kts | 71° |
| 2026-04-30 08:00 | 51.90545 | 1.01666 | 34414 ft | 429 kts | 71° |
| 2026-04-30 08:00 | 51.91686 | 1.06129 | 34666 ft | 428 kts | 71° |
| 2026-04-30 08:00 | 51.92824 | 1.10585 | 34878 ft | 428 kts | 71° |
| 2026-04-30 08:00 | 51.93960 | 1.15039 | 35088 ft | 428 kts | 71° |
| 2026-04-30 08:01 | 51.95094 | 1.19505 | 35273 ft | 429 kts | 71° |
| 2026-04-30 08:01 | 51.96234 | 1.23994 | 35327 ft | 432 kts | 71° |
| 2026-04-30 08:01 | 51.98522 | 1.33013 | 35329 ft | 433 kts | 71° |
| 2026-04-30 08:02 | 52.01546 | 1.45059 | 35339 ft | 433 kts | 71° |
| 2026-04-30 08:03 | 52.06078 | 1.63172 | 35345 ft | 433 kts | 71° |
| 2026-04-30 08:04 | 52.08336 | 1.72245 | 35346 ft | 433 kts | 71° |
| 2026-04-30 08:04 | 52.10585 | 1.81317 | 35348 ft | 432 kts | 71° |
| 2026-04-30 08:05 | 52.12826 | 1.90403 | 35346 ft | 432 kts | 71° |
| 2026-04-30 08:05 | 52.15057 | 1.99492 | 35343 ft | 432 kts | 71° |
| 2026-04-30 08:06 | 52.17264 | 2.08517 | 35354 ft | 431 kts | 71° |
| 2026-04-30 08:06 | 52.19469 | 2.17592 | 35358 ft | 430 kts | 71° |
| 2026-04-30 08:07 | 52.21666 | 2.26672 | 35355 ft | 430 kts | 71° |
| 2026-04-30 08:07 | 52.23857 | 2.35745 | 35354 ft | 430 kts | 71° |
| 2026-04-30 08:08 | 52.26048 | 2.44826 | 35357 ft | 430 kts | 71° |
| 2026-04-30 08:08 | 52.28230 | 2.53922 | 35354 ft | 429 kts | 71° |
| 2026-04-30 08:09 | 52.30384 | 2.62949 | 35358 ft | 429 kts | 71° |
| 2026-04-30 08:09 | 52.32112 | 2.72236 | 35360 ft | 427 kts | 76° |
| 2026-04-30 08:10 | 52.33758 | 2.81569 | 35363 ft | 427 kts | 76° |
| 2026-04-30 08:10 | 52.35395 | 2.90900 | 35369 ft | 427 kts | 76° |
| 2026-04-30 08:11 | 52.37024 | 3.00241 | 35370 ft | 426 kts | 75° |
| 2026-04-30 08:11 | 52.38640 | 3.09577 | 35377 ft | 425 kts | 76° |
| 2026-04-30 08:12 | 52.40460 | 3.18785 | 35372 ft | 427 kts | 67° |
| 2026-04-30 08:12 | 52.42966 | 3.27598 | 35370 ft | 426 kts | 67° |
| 2026-04-30 08:13 | 52.45450 | 3.36428 | 35374 ft | 426 kts | 67° |
| 2026-04-30 08:13 | 52.47904 | 3.45207 | 35372 ft | 426 kts | 67° |
| 2026-04-30 08:14 | 52.50375 | 3.54046 | 35367 ft | 426 kts | 67° |
| 2026-04-30 08:14 | 52.52841 | 3.62905 | 35390 ft | 426 kts | 67° |
| 2026-04-30 08:15 | 52.55298 | 3.71777 | 35390 ft | 426 kts | 67° |
| 2026-04-30 08:15 | 52.57751 | 3.80651 | 35401 ft | 426 kts | 67° |
| 2026-04-30 08:16 | 52.60196 | 3.89536 | 35401 ft | 426 kts | 67° |
| 2026-04-30 08:16 | 52.62631 | 3.98434 | 35406 ft | 426 kts | 67° |
| 2026-04-30 08:17 | 52.65064 | 4.07334 | 35405 ft | 426 kts | 67° |
| 2026-04-30 08:17 | 52.67489 | 4.16259 | 35407 ft | 427 kts | 67° |
| 2026-04-30 08:18 | 52.69906 | 4.25197 | 35417 ft | 427 kts | 67° |
| 2026-04-30 08:18 | 52.72303 | 4.34090 | 35416 ft | 427 kts | 67° |
| 2026-04-30 08:19 | 52.74716 | 4.43052 | 35435 ft | 427 kts | 67° |
| 2026-04-30 08:19 | 52.77126 | 4.52017 | 35431 ft | 427 kts | 67° |
| 2026-04-30 08:20 | 52.79518 | 4.60992 | 35433 ft | 427 kts | 67° |
| 2026-04-30 08:20 | 52.81907 | 4.69986 | 35449 ft | 427 kts | 67° |
| 2026-04-30 08:21 | 52.84293 | 4.78994 | 35451 ft | 427 kts | 67° |
| 2026-04-30 08:21 | 52.86666 | 4.88013 | 35451 ft | 427 kts | 67° |
| 2026-04-30 08:22 | 52.89035 | 4.97045 | 35451 ft | 427 kts | 67° |
| 2026-04-30 08:22 | 52.91379 | 5.06026 | 35458 ft | 427 kts | 67° |
| 2026-04-30 08:23 | 52.93609 | 5.14594 | 35462 ft | 427 kts | 67° |
| 2026-04-30 08:23 | 52.95958 | 5.23633 | 35466 ft | 426 kts | 67° |